createdAt,value
2023-04-08T00:01:10.979Z,6.90
2023-04-08T00:03:37.606Z,7.80
2023-04-08T00:06:04.690Z,6.45
2023-04-08T00:08:31.413Z,6.40
2023-04-08T00:10:57.976Z,6.47
2023-04-08T00:13:24.468Z,6.75
2023-04-08T00:15:50.928Z,6.33
2023-04-08T00:18:17.644Z,6.28
2023-04-08T00:20:44.155Z,6.88
2023-04-08T00:23:10.733Z,6.63
2023-04-08T00:25:37.261Z,5.97
2023-04-08T00:28:03.992Z,6.50
2023-04-08T00:30:30.527Z,6.50
2023-04-08T00:32:57.459Z,6.82
2023-04-08T00:35:24.652Z,6.50
2023-04-08T00:37:51.263Z,6.30
2023-04-08T00:40:18.090Z,6.40
2023-04-08T00:42:44.586Z,7.32
2023-04-08T00:45:11.377Z,7.22
2023-04-08T00:47:38.366Z,6.55
2023-04-08T00:50:08.438Z,7.35
2023-04-08T00:52:34.974Z,6.77
2023-04-08T00:55:01.528Z,6.15
2023-04-08T00:57:28.188Z,6.47
2023-04-08T00:59:55.112Z,7.10
2023-04-08T01:02:45.868Z,7.53
2023-04-08T01:05:19.934Z,7.60
2023-04-08T01:07:50.536Z,6.85
2023-04-08T01:10:23.118Z,6.88
2023-04-08T01:12:55.298Z,6.93
2023-04-08T01:15:22.288Z,7.07
2023-04-08T01:17:53.200Z,6.80
2023-04-08T01:20:20.473Z,7.07
2023-04-08T01:23:03.855Z,7.28
2023-04-08T01:25:32.568Z,7.13
2023-04-08T01:28:01.888Z,6.95
2023-04-08T01:30:30.599Z,8.20
2023-04-08T01:32:59.736Z,7.22
2023-04-08T01:35:26.754Z,7.38
2023-04-08T01:37:54.399Z,7.22
2023-04-08T01:40:22.554Z,7.63
2023-04-08T01:42:51.877Z,6.90
2023-04-08T01:45:18.715Z,7.68
2023-04-08T01:47:48.108Z,7.72
2023-04-08T01:50:16.443Z,7.90
2023-04-08T01:52:44.978Z,8.13
2023-04-08T01:55:13.831Z,8.07
2023-04-08T01:57:42.752Z,7.60
2023-04-08T02:00:11.215Z,7.57
2023-04-08T02:02:47.637Z,7.10
2023-04-08T02:05:14.948Z,7.70
2023-04-08T02:07:41.655Z,7.03
2023-04-08T02:10:08.391Z,7.88
2023-04-08T02:12:35.002Z,8.82
2023-04-08T02:15:02.422Z,8.07
2023-04-08T02:17:39.643Z,7.72
2023-04-08T02:20:08.850Z,8.00
2023-04-08T02:22:48.064Z,8.32
2023-04-08T02:25:16.461Z,8.40
2023-04-08T02:27:45.654Z,7.93
2023-04-08T02:30:13.899Z,7.40
2023-04-08T02:32:41.432Z,7.63
2023-04-08T02:35:11.491Z,8.38
2023-04-08T02:37:38.559Z,9.25
2023-04-08T02:40:21.812Z,8.30
2023-04-08T02:42:48.345Z,7.55
2023-04-08T02:45:14.826Z,8.07
2023-04-08T02:47:42.090Z,7.45
2023-04-08T02:50:09.085Z,7.65
2023-04-08T02:52:35.602Z,7.78
2023-04-08T02:55:02.258Z,7.45
2023-04-08T02:57:29.481Z,7.50
2023-04-08T02:59:56.027Z,7.90
2023-04-08T03:02:22.589Z,7.72
2023-04-08T03:04:49.149Z,7.65
2023-04-08T03:07:15.696Z,8.10
2023-04-08T03:09:42.143Z,7.37
2023-04-08T03:12:08.622Z,6.80
2023-04-08T03:14:35.262Z,7.30
2023-04-08T03:17:01.855Z,7.53
2023-04-08T03:19:28.472Z,7.10
2023-04-08T03:21:54.898Z,7.23
2023-04-08T03:24:21.450Z,6.85
2023-04-08T03:26:47.979Z,6.68
2023-04-08T03:29:14.498Z,7.45
2023-04-08T03:31:41.270Z,7.28
2023-04-08T03:34:07.727Z,6.50
2023-04-08T03:36:34.242Z,6.47
2023-04-08T03:39:00.896Z,7.45
2023-04-08T03:41:27.429Z,7.18
2023-04-08T03:43:53.913Z,6.70
2023-04-08T03:46:20.765Z,6.83
2023-04-08T03:48:47.332Z,7.03
2023-04-08T03:51:13.919Z,6.78
2023-04-08T03:53:40.634Z,6.03
2023-04-08T03:56:07.327Z,6.65
2023-04-08T03:58:33.797Z,6.93
2023-04-08T04:01:00.469Z,6.32
2023-04-08T04:03:27.350Z,6.80
2023-04-08T04:05:54.104Z,6.57
2023-04-08T04:08:20.643Z,7.13
2023-04-08T04:10:47.063Z,6.37
2023-04-08T04:13:13.572Z,6.40
2023-04-08T04:15:40.879Z,6.07
2023-04-08T04:18:08.260Z,6.35
2023-04-08T04:20:34.903Z,6.95
2023-04-08T04:23:01.337Z,6.37
2023-04-08T04:25:27.879Z,6.18
2023-04-08T04:27:54.550Z,6.45
2023-04-08T04:30:21.871Z,6.88
2023-04-08T04:32:48.406Z,5.97
2023-04-08T04:35:14.952Z,6.70
2023-04-08T04:37:41.644Z,6.28
2023-04-08T04:40:08.387Z,6.13
2023-04-08T04:42:35.017Z,6.15
2023-04-08T04:45:01.569Z,6.05
2023-04-08T04:47:28.093Z,6.37
2023-04-08T04:49:54.656Z,6.35
2023-04-08T04:52:21.181Z,5.85
2023-04-08T04:54:47.636Z,6.40
2023-04-08T04:57:14.465Z,6.13
2023-04-08T04:59:41.038Z,6.20
2023-04-08T05:02:07.630Z,6.93
2023-04-08T05:04:34.256Z,5.90
2023-04-08T05:07:00.813Z,6.38
2023-04-08T05:09:27.344Z,6.68
2023-04-08T05:11:53.771Z,6.40
2023-04-08T05:14:20.284Z,6.07
2023-04-08T05:16:46.835Z,6.40
2023-04-08T05:19:13.357Z,7.35
2023-04-08T05:21:39.836Z,6.30
2023-04-08T05:24:06.480Z,6.77
2023-04-08T05:26:33.058Z,6.28
2023-04-08T05:28:59.616Z,6.07
2023-04-08T05:31:26.439Z,5.90
2023-04-08T05:33:53.011Z,6.80
2023-04-08T05:36:19.453Z,6.50
2023-04-08T05:38:45.989Z,6.32
2023-04-08T05:41:12.513Z,6.53
2023-04-08T05:43:39.037Z,6.72
2023-04-08T05:46:11.720Z,6.35
2023-04-08T05:48:38.247Z,6.00
2023-04-08T05:51:04.769Z,6.38
2023-04-08T05:53:31.467Z,6.80
2023-04-08T05:55:58.087Z,6.22
2023-04-08T05:58:24.809Z,6.40
2023-04-08T06:00:51.519Z,5.90
2023-04-08T06:03:20.557Z,6.25
2023-04-08T06:05:47.389Z,6.28
2023-04-08T06:08:14.131Z,6.28
2023-04-08T06:10:40.826Z,5.82
2023-04-08T06:13:07.462Z,5.90
2023-04-08T06:15:33.992Z,5.65
2023-04-08T06:18:00.552Z,6.40
2023-04-08T06:20:27.311Z,6.65
2023-04-08T06:22:53.856Z,6.70
2023-04-08T06:25:20.261Z,6.47
2023-04-08T06:27:48.346Z,5.65
2023-04-08T06:30:14.948Z,7.10
2023-04-08T06:32:41.547Z,6.80
2023-04-08T06:35:08.845Z,6.22
2023-04-08T06:37:38.502Z,7.43
2023-04-08T06:40:06.432Z,6.90
2023-04-08T06:42:32.932Z,6.38
2023-04-08T06:45:18.301Z,6.22
2023-04-08T06:47:44.841Z,6.53
2023-04-08T06:50:11.592Z,6.70
2023-04-08T06:52:38.078Z,7.10
2023-04-08T06:55:05.066Z,7.10
2023-04-08T06:57:31.550Z,6.97
2023-04-08T06:59:58.099Z,7.03
2023-04-08T07:02:24.864Z,6.80
2023-04-08T07:04:51.599Z,7.07
2023-04-08T07:07:18.289Z,7.10
2023-04-08T07:09:46.509Z,7.38
2023-04-08T07:12:13.058Z,6.95
2023-04-08T07:14:39.720Z,7.27
2023-04-08T07:17:06.751Z,6.85
2023-04-08T07:19:33.381Z,7.13
2023-04-08T07:21:59.929Z,7.82
2023-04-08T07:24:27.092Z,7.80
2023-04-08T07:26:55.328Z,7.63
2023-04-08T07:29:22.005Z,7.28
2023-04-08T07:31:48.466Z,8.57
2023-04-08T07:34:14.984Z,7.93
2023-04-08T07:36:41.570Z,7.60
2023-04-08T07:39:08.069Z,7.60
2023-04-08T07:41:34.557Z,7.43
2023-04-08T07:44:01.402Z,7.72
2023-04-08T07:46:27.960Z,7.68
2023-04-08T07:48:54.455Z,7.13
2023-04-08T07:51:21.091Z,7.73
2023-04-08T07:53:48.262Z,7.00
2023-04-08T07:56:16.024Z,7.50
2023-04-08T07:58:42.965Z,7.35
2023-04-08T08:01:23.037Z,7.85
2023-04-08T08:03:51.203Z,8.33
2023-04-08T08:06:18.476Z,8.90
2023-04-08T08:08:45.674Z,8.48
2023-04-08T08:11:12.412Z,9.45
2023-04-08T08:13:39.015Z,9.13
2023-04-08T08:16:09.050Z,9.40
2023-04-08T08:18:36.372Z,8.60
2023-04-08T08:21:03.442Z,8.63
2023-04-08T08:23:29.958Z,9.60
2023-04-08T08:26:07.126Z,9.27
2023-04-08T08:28:33.800Z,9.40
2023-04-08T08:31:00.340Z,9.25
2023-04-08T08:33:26.876Z,9.45
2023-04-08T08:35:53.522Z,8.68
2023-04-08T08:38:20.450Z,8.93
2023-04-08T08:40:47.235Z,9.00
2023-04-08T08:43:14.195Z,8.75
2023-04-08T08:45:41.931Z,9.70
2023-04-08T08:48:09.030Z,9.73
2023-04-08T08:50:36.126Z,9.18
2023-04-08T08:53:03.390Z,9.57
2023-04-08T08:56:00.289Z,9.27
2023-04-08T08:58:21.444Z,9.15
2023-04-08T09:00:47.981Z,8.80
2023-04-08T09:03:17.651Z,8.68
2023-04-08T09:05:56.133Z,8.60
2023-04-08T09:08:33.001Z,9.20
2023-04-08T09:11:21.773Z,9.10
2023-04-08T09:13:48.720Z,8.60
2023-04-08T09:16:18.094Z,7.60
2023-04-08T09:18:47.117Z,8.17
2023-04-08T09:21:14.662Z,7.70
2023-04-08T09:23:48.499Z,7.30
2023-04-08T09:26:16.233Z,7.88
2023-04-08T09:28:44.143Z,7.75
2023-04-08T09:31:24.394Z,7.87
2023-04-08T09:33:53.547Z,7.97
2023-04-08T09:36:20.115Z,8.30
2023-04-08T09:38:46.981Z,7.75
2023-04-08T09:41:18.126Z,8.27
2023-04-08T09:43:50.256Z,7.10
2023-04-08T09:46:19.351Z,8.00
2023-04-08T09:48:53.748Z,7.75
2023-04-08T09:51:23.478Z,8.57
2023-04-08T09:53:59.450Z,6.75
2023-04-08T09:56:30.295Z,6.13
2023-04-08T09:59:04.870Z,6.78
2023-04-08T10:01:40.513Z,6.30
2023-04-08T10:04:12.321Z,7.50
2023-04-08T10:06:41.179Z,6.55
2023-04-08T10:09:08.169Z,6.30
2023-04-08T10:11:36.114Z,6.05
2023-04-08T10:14:03.047Z,6.43
2023-04-08T10:16:29.896Z,6.18
2023-04-08T10:18:56.802Z,5.35
2023-04-08T10:21:39.718Z,6.27
2023-04-08T10:24:08.550Z,6.18
2023-04-08T10:26:36.942Z,6.53
2023-04-08T10:29:32.797Z,6.57
2023-04-08T10:31:59.670Z,6.32
2023-04-08T10:34:27.289Z,6.53
2023-04-08T10:36:55.816Z,6.93
2023-04-08T10:39:22.858Z,7.32
2023-04-08T10:41:50.964Z,7.10
2023-04-08T10:44:22.718Z,6.82
2023-04-08T10:46:50.295Z,6.53
2023-04-08T10:49:17.887Z,6.90
2023-04-08T10:51:45.177Z,7.07
2023-04-08T10:54:14.066Z,6.80
2023-04-08T10:56:48.416Z,6.70
2023-04-08T10:59:16.954Z,6.73
2023-04-08T11:01:45.598Z,6.82
2023-04-08T11:04:16.988Z,7.28
2023-04-08T11:06:44.988Z,7.40
2023-04-08T11:09:11.917Z,8.00
2023-04-08T11:11:38.640Z,8.20
2023-04-08T11:14:06.075Z,7.50
2023-04-08T11:16:33.659Z,7.30
2023-04-08T11:19:02.980Z,8.55
2023-04-08T11:21:30.768Z,9.85
2023-04-08T11:23:57.698Z,8.40
2023-04-08T11:26:25.561Z,8.60
2023-04-08T11:28:52.408Z,8.55
2023-04-08T11:31:22.792Z,9.32
2023-04-08T11:33:54.595Z,8.45
2023-04-08T11:36:21.872Z,8.47
2023-04-08T11:38:48.989Z,9.40
2023-04-08T11:41:16.300Z,10.10
2023-04-08T11:43:53.958Z,9.07
2023-04-08T11:46:20.726Z,9.63
2023-04-08T11:49:13.447Z,8.10
2023-04-08T11:51:56.327Z,10.13
2023-04-08T11:54:32.209Z,9.60
2023-04-08T11:56:59.184Z,9.73
2023-04-08T11:59:28.374Z,9.95
2023-04-08T12:01:56.013Z,9.90
2023-04-08T12:04:22.586Z,9.65
2023-04-08T12:06:49.626Z,10.15
2023-04-08T12:09:16.445Z,10.20
2023-04-08T12:11:43.035Z,10.55
2023-04-08T12:14:09.625Z,10.50
2023-04-08T12:16:36.367Z,11.00
2023-04-08T12:19:03.154Z,10.95
2023-04-08T12:21:29.634Z,10.82
2023-04-08T12:23:56.154Z,10.77
2023-04-08T12:26:22.691Z,10.53
2023-04-08T12:28:49.262Z,11.32
2023-04-08T12:31:15.849Z,11.25
2023-04-08T12:33:42.379Z,10.48
2023-04-08T12:36:09.631Z,10.30
2023-04-08T12:38:37.345Z,10.87
2023-04-08T12:41:03.837Z,10.60
2023-04-08T12:43:32.659Z,11.05
2023-04-08T12:45:59.137Z,11.20
2023-04-08T12:48:26.379Z,10.48
2023-04-08T12:50:53.053Z,11.27
2023-04-08T12:53:19.574Z,10.40
2023-04-08T12:55:47.435Z,10.70
2023-04-08T12:58:16.836Z,10.75
2023-04-08T13:00:46.699Z,11.82
2023-04-08T13:03:15.849Z,10.60
2023-04-08T13:05:43.898Z,9.85
2023-04-08T13:08:12.216Z,10.35
2023-04-08T13:10:38.737Z,10.82
2023-04-08T13:13:05.277Z,9.95
2023-04-08T13:15:31.744Z,10.00
2023-04-08T13:17:58.323Z,9.70
2023-04-08T13:20:26.230Z,10.98
2023-04-08T13:22:53.255Z,9.95
2023-04-08T13:25:19.842Z,9.98
2023-04-08T13:27:46.339Z,10.00
2023-04-08T13:30:13.072Z,9.10
2023-04-08T13:32:39.675Z,9.70
2023-04-08T13:35:06.435Z,11.02
2023-04-08T13:37:33.049Z,9.60
2023-04-08T13:39:59.497Z,9.30
2023-04-08T13:42:26.290Z,10.10
2023-04-08T13:44:52.788Z,10.20
2023-04-08T13:47:19.288Z,10.23
2023-04-08T13:49:45.950Z,10.73
2023-04-08T13:52:12.419Z,9.90
2023-04-08T13:54:38.904Z,10.20
2023-04-08T13:57:05.404Z,10.40
2023-04-08T13:59:31.950Z,10.48
2023-04-08T14:01:58.676Z,11.13
2023-04-08T14:04:25.479Z,11.33
2023-04-08T14:06:53.174Z,10.38
2023-04-08T14:09:20.582Z,10.45
2023-04-08T14:11:47.335Z,10.30
2023-04-08T14:14:13.946Z,11.02
2023-04-08T14:16:41.601Z,10.27
2023-04-08T14:19:08.528Z,10.70
2023-04-08T14:21:35.118Z,10.57
2023-04-08T14:24:02.847Z,9.55
2023-04-08T14:26:29.590Z,10.02
2023-04-08T14:28:56.045Z,9.83
2023-04-08T14:31:22.600Z,10.25
2023-04-08T14:33:49.141Z,8.85
2023-04-08T14:36:16.655Z,9.65
2023-04-08T14:38:43.322Z,9.65
2023-04-08T14:41:10.232Z,9.70
2023-04-08T14:43:36.741Z,9.40
2023-04-08T14:46:03.344Z,9.75
2023-04-08T14:48:30.735Z,9.98
2023-04-08T14:50:57.455Z,10.02
2023-04-08T14:53:23.985Z,10.00
2023-04-08T14:55:51.025Z,9.95
2023-04-08T14:58:17.923Z,9.80
2023-04-08T15:00:47.623Z,9.80
2023-04-08T15:03:14.774Z,9.93
2023-04-08T15:05:55.827Z,9.57
2023-04-08T15:08:22.362Z,10.45
2023-04-08T15:10:48.887Z,10.45
2023-04-08T15:13:15.389Z,10.45
2023-04-08T15:15:42.356Z,9.48
2023-04-08T15:18:08.807Z,9.60
2023-04-08T15:20:35.419Z,10.38
2023-04-08T15:23:01.912Z,9.98
2023-04-08T15:25:28.371Z,9.57
2023-04-08T15:27:54.890Z,9.25
2023-04-08T15:30:24.520Z,9.27
2023-04-08T15:32:52.133Z,10.02
2023-04-08T15:35:18.746Z,9.13
2023-04-08T15:37:45.323Z,8.57
2023-04-08T15:40:12.003Z,8.60
2023-04-08T15:42:38.462Z,10.23
2023-04-08T15:45:05.174Z,9.45
2023-04-08T15:47:32.919Z,9.68
2023-04-08T15:50:00.060Z,9.90
2023-04-08T15:52:27.778Z,10.02
2023-04-08T15:54:54.238Z,9.23
2023-04-08T15:57:26.620Z,10.18
2023-04-08T15:59:53.580Z,10.40
2023-04-08T16:02:20.549Z,9.18
2023-04-08T16:04:47.247Z,9.90
2023-04-08T16:07:13.738Z,10.03
2023-04-08T16:09:40.263Z,10.82
2023-04-08T16:12:06.718Z,9.60
2023-04-08T16:14:34.045Z,9.45
2023-04-08T16:17:00.595Z,10.70
2023-04-08T16:19:27.273Z,10.40
2023-04-08T16:21:53.763Z,10.27
2023-04-08T16:27:07.189Z,8.80
2023-04-08T16:29:33.678Z,9.70
2023-04-08T16:32:01.516Z,9.00
2023-04-08T16:34:30.834Z,9.52
2023-04-08T16:36:57.468Z,9.23
2023-04-08T16:39:23.968Z,8.93
2023-04-08T16:41:50.520Z,9.15
2023-04-08T16:44:16.952Z,9.27
2023-04-08T16:46:43.866Z,9.32
2023-04-08T16:49:11.731Z,9.20
2023-04-08T16:51:40.641Z,10.07
2023-04-08T16:54:07.168Z,9.45
2023-04-08T16:56:33.703Z,9.00
2023-04-08T16:59:00.242Z,9.45
2023-04-08T17:01:27.172Z,9.77
2023-04-08T17:03:53.984Z,9.65
2023-04-08T17:06:20.693Z,8.88
2023-04-08T17:08:47.143Z,9.30
2023-04-08T17:11:14.968Z,9.38
2023-04-08T17:13:43.089Z,9.25
2023-04-08T17:16:17.346Z,9.82
2023-04-08T17:18:45.074Z,9.43
2023-04-08T17:21:13.888Z,9.50
2023-04-08T17:23:40.638Z,9.52
2023-04-08T17:26:08.252Z,9.73
2023-04-08T17:28:35.588Z,9.60
2023-04-08T17:31:02.486Z,10.60
2023-04-08T17:33:28.991Z,9.50
2023-04-08T17:35:55.788Z,11.00
2023-04-08T17:38:22.399Z,10.48
2023-04-08T17:40:48.906Z,9.63
2023-04-08T17:43:15.452Z,9.85
2023-04-08T17:45:42.193Z,10.37
2023-04-08T17:48:09.867Z,10.60
2023-04-08T17:50:36.672Z,10.73
2023-04-08T17:53:03.276Z,10.70
2023-04-08T17:55:29.782Z,10.80
2023-04-08T17:57:56.209Z,10.70
2023-04-08T18:00:22.999Z,10.25
2023-04-08T18:02:50.332Z,10.70
2023-04-08T18:05:16.982Z,11.88
2023-04-08T18:07:43.674Z,10.88
2023-04-08T18:10:10.144Z,10.83
2023-04-08T18:12:36.682Z,10.35
2023-04-08T18:15:03.502Z,11.38
2023-04-08T18:17:30.335Z,10.55
2023-04-08T18:19:58.776Z,10.60
2023-04-08T18:22:25.229Z,10.77
2023-04-08T18:24:51.789Z,10.57
2023-04-08T18:27:18.285Z,10.77
2023-04-08T18:29:44.803Z,12.07
2023-04-08T18:32:11.357Z,10.77
2023-04-08T18:34:38.975Z,10.83
2023-04-08T18:37:05.573Z,11.60
2023-04-08T18:39:32.151Z,10.95
2023-04-08T18:41:58.710Z,10.82
2023-04-08T18:44:25.500Z,11.63
2023-04-08T18:46:52.122Z,11.60
2023-04-08T18:49:18.613Z,11.63
2023-04-08T18:51:58.969Z,11.48
2023-04-08T18:54:28.190Z,11.13
2023-04-08T18:56:54.722Z,12.30
2023-04-08T18:59:21.188Z,11.00
2023-04-08T19:01:47.791Z,12.10
2023-04-08T19:04:14.357Z,12.30
2023-04-08T19:06:41.889Z,11.05
2023-04-08T19:09:08.383Z,12.13
2023-04-08T19:11:35.060Z,11.93
2023-04-08T19:14:01.572Z,12.85
2023-04-08T19:16:28.153Z,13.10
2023-04-08T19:18:54.892Z,14.02
2023-04-08T19:21:21.791Z,12.75
2023-04-08T19:23:49.014Z,12.93
2023-04-08T19:26:16.488Z,13.05
2023-04-08T19:28:43.066Z,12.35
2023-04-08T19:31:20.475Z,13.18
2023-04-08T19:33:47.133Z,13.40
2023-04-08T19:36:13.573Z,13.70
2023-04-08T19:38:40.255Z,14.07
2023-04-08T19:41:07.085Z,14.32
2023-04-08T19:43:33.552Z,15.68
2023-04-08T19:46:00.100Z,14.93
2023-04-08T19:48:26.659Z,14.77
2023-04-08T19:50:53.151Z,14.82
2023-04-08T19:53:19.797Z,14.50
2023-04-08T19:55:46.366Z,14.60
2023-04-08T19:58:12.914Z,14.65
2023-04-08T20:00:40.089Z,15.63
2023-04-08T20:03:07.784Z,14.95
2023-04-08T20:05:34.755Z,14.32
2023-04-08T20:08:01.278Z,13.68
2023-04-08T20:10:27.888Z,17.00
2023-04-08T20:12:54.352Z,15.47
2023-04-08T20:15:25.156Z,15.13
2023-04-08T20:17:53.154Z,15.48
2023-04-08T20:20:20.089Z,24.10
2023-04-08T20:22:46.678Z,16.52
2023-04-08T20:25:13.270Z,16.33
2023-04-08T20:27:39.785Z,16.10
2023-04-08T20:30:07.056Z,15.10
2023-04-08T20:32:34.644Z,15.35
2023-04-08T20:35:01.449Z,15.73
2023-04-08T20:37:28.731Z,16.10
2023-04-08T20:39:55.240Z,15.65
2023-04-08T20:42:21.824Z,16.40
2023-04-08T20:44:48.298Z,16.80
2023-04-08T20:47:15.605Z,16.15
2023-04-08T20:49:42.784Z,15.67
2023-04-08T20:52:09.337Z,16.90
2023-04-08T20:54:35.904Z,22.75
2023-04-08T20:57:02.357Z,18.33
2023-04-08T20:59:28.876Z,17.27
2023-04-08T21:01:55.386Z,17.73
2023-04-08T21:04:24.366Z,17.08
2023-04-08T21:06:51.270Z,16.40
2023-04-08T21:09:17.819Z,16.05
2023-04-08T21:11:44.465Z,17.10
2023-04-08T21:14:10.936Z,16.47
2023-04-08T21:16:37.455Z,18.42
2023-04-08T21:19:04.082Z,18.20
2023-04-08T21:21:31.645Z,17.08
2023-04-08T21:23:58.454Z,16.30
2023-04-08T21:26:25.885Z,17.20
2023-04-08T21:28:52.876Z,17.10
2023-04-08T21:31:19.579Z,17.90
2023-04-08T21:33:46.145Z,18.48
2023-04-08T21:36:12.691Z,17.08
2023-04-08T21:38:39.476Z,17.87
2023-04-08T21:41:05.952Z,17.55
2023-04-08T21:43:32.491Z,17.58
2023-04-08T21:45:59.007Z,19.95
2023-04-08T21:48:25.652Z,18.75
2023-04-08T21:50:53.131Z,20.07
2023-04-08T21:53:22.029Z,17.88
2023-04-08T21:55:48.659Z,18.15
2023-04-08T21:58:16.520Z,17.95
2023-04-08T22:00:43.035Z,18.27
2023-04-08T22:03:09.684Z,17.23
2023-04-08T22:05:36.816Z,18.88
2023-04-08T22:08:03.446Z,18.20
2023-04-08T22:10:29.939Z,17.95
2023-04-08T22:12:56.468Z,18.63
2023-04-08T22:15:23.150Z,19.27
2023-04-08T22:17:49.842Z,19.52
2023-04-08T22:20:16.424Z,19.88
2023-04-08T22:22:42.977Z,19.50
2023-04-08T22:25:09.727Z,19.05
2023-04-08T22:27:36.367Z,19.17
2023-04-08T22:30:02.950Z,20.20
2023-04-08T22:32:29.553Z,20.92
2023-04-08T22:34:57.213Z,20.45
2023-04-08T22:37:23.795Z,19.77
2023-04-08T22:39:50.412Z,19.53
2023-04-08T22:42:16.924Z,20.42
2023-04-08T22:44:43.432Z,20.05
2023-04-08T22:47:09.961Z,21.13
2023-04-08T22:49:36.480Z,20.85
2023-04-08T22:52:03.279Z,20.90
2023-04-08T22:54:29.774Z,20.83
2023-04-08T22:56:56.581Z,22.50
2023-04-08T22:59:23.304Z,21.35
2023-04-08T23:01:49.881Z,21.02
2023-04-08T23:04:16.426Z,20.67
2023-04-08T23:06:42.897Z,21.55
2023-04-08T23:09:09.364Z,23.08
2023-04-08T23:11:35.986Z,22.15
2023-04-08T23:14:02.527Z,22.35
2023-04-08T23:16:29.087Z,22.57
2023-04-08T23:18:55.635Z,21.42
2023-04-08T23:21:22.310Z,22.77
2023-04-08T23:23:48.880Z,21.20
2023-04-08T23:26:19.342Z,20.48
2023-04-08T23:28:46.082Z,20.57
2023-04-08T23:31:12.704Z,21.08
2023-04-08T23:33:39.437Z,21.65
2023-04-08T23:36:09.842Z,21.65
2023-04-08T23:38:37.038Z,21.80
2023-04-08T23:41:04.820Z,21.07
2023-04-08T23:43:31.440Z,21.55
2023-04-08T23:45:57.994Z,21.02
2023-04-08T23:48:24.573Z,20.25
2023-04-08T23:50:52.146Z,19.73
2023-04-08T23:53:19.166Z,19.27
2023-04-08T23:55:45.780Z,18.83
2023-04-08T23:58:12.349Z,20.50
